createdAt,value
2022-11-03T00:02:13.623Z,56.55
2022-11-03T00:04:41.045Z,55.63
2022-11-03T00:07:08.320Z,59.13
2022-11-03T00:09:35.890Z,58.10
2022-11-03T00:12:03.184Z,58.88
2022-11-03T00:14:31.372Z,60.03
2022-11-03T00:16:58.722Z,56.33
2022-11-03T00:19:25.854Z,58.50
2022-11-03T00:21:53.031Z,59.58
2022-11-03T00:24:20.319Z,60.28
2022-11-03T00:26:47.607Z,63.00
2022-11-03T00:29:15.494Z,62.60
2022-11-03T00:31:45.094Z,63.17
2022-11-03T00:34:12.958Z,65.18
2022-11-03T00:36:43.902Z,62.33
2022-11-03T00:39:12.814Z,63.70
2022-11-03T00:41:41.013Z,62.58
2022-11-03T00:44:10.505Z,62.30
2022-11-03T00:46:38.691Z,61.30
2022-11-03T00:49:06.665Z,60.72
2022-11-03T00:51:37.585Z,60.78
2022-11-03T00:54:07.474Z,60.05
2022-11-03T00:56:39.703Z,63.08
2022-11-03T00:59:09.730Z,62.05
2022-11-03T01:01:47.007Z,62.70
2022-11-03T01:04:35.897Z,61.00
2022-11-03T01:07:05.777Z,61.47
2022-11-03T01:09:43.315Z,59.92
2022-11-03T01:12:18.669Z,61.17
2022-11-03T01:14:53.108Z,60.70
2022-11-03T01:17:28.204Z,61.35
2022-11-03T01:19:55.906Z,58.90
2022-11-03T01:22:24.459Z,58.15
2022-11-03T01:24:52.020Z,58.25
2022-11-03T01:27:23.025Z,59.40
2022-11-03T01:29:50.416Z,58.55
2022-11-03T01:32:17.723Z,59.58
2022-11-03T01:34:44.960Z,60.17
2022-11-03T01:37:12.238Z,59.65
2022-11-03T01:39:39.559Z,55.63
2022-11-03T01:42:06.722Z,58.95
2022-11-03T01:44:37.834Z,55.53
2022-11-03T01:47:22.413Z,58.30
2022-11-03T01:50:08.802Z,58.85
2022-11-03T01:52:57.202Z,56.28
2022-11-03T01:55:32.794Z,54.72
2022-11-03T02:00:32.096Z,53.33
2022-11-03T02:03:00.857Z,53.50
2022-11-03T02:05:30.212Z,55.22
2022-11-03T02:08:26.224Z,54.78
2022-11-03T02:10:53.635Z,51.45
2022-11-03T02:13:25.873Z,53.28
2022-11-03T02:15:59.463Z,51.13
2022-11-03T02:18:32.522Z,51.63
2022-11-03T02:21:35.694Z,50.85
2022-11-03T02:24:36.232Z,51.63
2022-11-03T02:27:03.763Z,54.83
2022-11-03T02:29:30.943Z,53.45
2022-11-03T02:32:28.311Z,53.80
2022-11-03T02:35:28.172Z,50.30
2022-11-03T02:38:01.121Z,49.05
2022-11-03T02:40:53.270Z,46.40
2022-11-03T02:43:22.605Z,47.10
2022-11-03T02:45:52.762Z,49.03
2022-11-03T02:48:20.135Z,51.42
2022-11-03T02:50:51.426Z,52.53
2022-11-03T02:53:20.307Z,51.40
2022-11-03T02:56:05.370Z,52.97
2022-11-03T02:59:14.344Z,52.58
2022-11-03T03:01:52.778Z,50.97
2022-11-03T03:04:46.503Z,51.72
2022-11-03T03:07:22.571Z,51.58
2022-11-03T03:10:14.002Z,52.63
2022-11-03T03:12:57.655Z,51.25
2022-11-03T03:16:11.532Z,52.10
2022-11-03T03:19:06.505Z,53.30
2022-11-03T03:21:46.164Z,54.50
2022-11-03T03:24:48.819Z,52.85
2022-11-03T03:27:18.593Z,53.15
2022-11-03T03:29:59.018Z,53.40
2022-11-03T03:32:31.412Z,52.85
2022-11-03T03:35:01.036Z,50.05
2022-11-03T03:37:30.416Z,49.08
2022-11-03T03:40:03.943Z,49.00
2022-11-03T03:42:32.929Z,48.92
2022-11-03T03:45:00.862Z,52.33
2022-11-03T03:47:31.879Z,51.72
2022-11-03T03:49:59.415Z,47.88
2022-11-03T03:52:28.255Z,46.42
2022-11-03T03:54:56.606Z,45.97
2022-11-03T03:57:25.422Z,45.65
2022-11-03T03:59:52.772Z,45.95
2022-11-03T04:02:20.155Z,48.17
2022-11-03T04:04:47.440Z,46.53
2022-11-03T04:07:33.131Z,47.28
2022-11-03T04:10:00.409Z,47.60
2022-11-03T04:12:46.283Z,49.83
2022-11-03T04:15:32.839Z,51.22
2022-11-03T04:18:23.425Z,49.20
2022-11-03T04:21:09.243Z,49.58
2022-11-03T04:23:36.478Z,46.40
2022-11-03T04:26:07.046Z,45.58
2022-11-03T04:28:34.376Z,50.28
2022-11-03T04:31:01.762Z,48.92
2022-11-03T04:33:30.109Z,51.05
2022-11-03T04:36:00.313Z,50.90
2022-11-03T04:38:29.432Z,53.60
2022-11-03T04:41:00.359Z,53.80
2022-11-03T04:43:35.885Z,54.22
2022-11-03T04:46:03.208Z,50.65
2022-11-03T04:48:30.683Z,52.88
2022-11-03T04:51:13.566Z,48.92
2022-11-03T04:53:49.437Z,51.13
2022-11-03T04:56:24.360Z,50.97
2022-11-03T04:58:53.816Z,52.58
2022-11-03T05:01:24.953Z,52.50
2022-11-03T05:03:54.865Z,51.08
2022-11-03T05:06:27.558Z,51.08
2022-11-03T05:09:07.722Z,48.83
2022-11-03T05:11:39.064Z,49.13
2022-11-03T05:14:26.968Z,51.63
2022-11-03T05:16:55.719Z,50.92
2022-11-03T05:19:40.073Z,52.30
2022-11-03T05:22:17.648Z,51.67
2022-11-03T05:24:45.161Z,52.78
2022-11-03T05:27:30.807Z,52.53
2022-11-03T05:30:01.017Z,51.47
2022-11-03T05:32:33.511Z,55.13
2022-11-03T05:35:01.274Z,54.25
2022-11-03T05:37:35.993Z,56.05
2022-11-03T05:40:26.999Z,54.13
2022-11-03T05:43:00.116Z,57.08
2022-11-03T05:45:35.670Z,56.97
2022-11-03T05:48:13.709Z,57.72
2022-11-03T05:50:42.570Z,59.22
2022-11-03T05:53:32.451Z,58.85
2022-11-03T05:56:04.513Z,60.45
2022-11-03T05:58:41.159Z,61.72
2022-11-03T06:01:36.012Z,59.58
2022-11-03T06:04:34.116Z,59.83
2022-11-03T06:07:16.811Z,60.83
2022-11-03T06:09:44.197Z,64.85
2022-11-03T06:12:19.018Z,63.03
2022-11-03T06:14:46.708Z,62.80
2022-11-03T06:17:27.020Z,63.92
2022-11-03T06:19:59.370Z,62.58
2022-11-03T06:22:38.282Z,67.18
2022-11-03T06:25:29.281Z,62.03
2022-11-03T06:28:05.176Z,65.72
2022-11-03T06:30:39.871Z,64.65
2022-11-03T06:33:35.870Z,69.30
2022-11-03T06:36:25.990Z,67.53
2022-11-03T06:39:01.879Z,66.72
2022-11-03T06:41:36.406Z,69.30
2022-11-03T06:44:25.454Z,69.93
2022-11-03T06:46:57.458Z,67.88
2022-11-03T06:49:36.069Z,68.50
2022-11-03T06:52:26.009Z,68.10
2022-11-03T06:55:13.687Z,63.55
2022-11-03T06:57:47.986Z,59.85
2022-11-03T07:00:34.114Z,50.03
2022-11-03T07:03:25.221Z,46.25
2022-11-03T07:05:59.298Z,43.53
2022-11-03T07:08:45.366Z,42.40
2022-11-03T07:14:25.084Z,41.15
2022-11-03T07:17:01.160Z,39.70
2022-11-03T07:19:35.102Z,39.22
2022-11-03T07:22:22.538Z,40.97
2022-11-03T07:24:55.279Z,36.03
2022-11-03T07:27:39.039Z,39.10
2022-11-03T07:30:31.403Z,36.45
2022-11-03T07:33:29.699Z,37.97
2022-11-03T07:36:14.940Z,36.63
2022-11-03T07:38:48.140Z,32.38
2022-11-03T07:41:31.202Z,32.88
2022-11-03T07:46:29.564Z,32.00
2022-11-03T07:49:04.381Z,32.10
2022-11-03T07:51:40.461Z,34.10
2022-11-03T07:54:23.535Z,34.28
2022-11-03T07:56:59.992Z,35.92
2022-11-03T07:59:53.782Z,33.90
2022-11-03T08:02:48.137Z,34.47
2022-11-03T08:05:15.662Z,35.40
2022-11-03T08:07:43.149Z,35.10
2022-11-03T08:10:10.520Z,34.25
2022-11-03T08:12:37.914Z,34.63
2022-11-03T08:15:07.140Z,35.22
2022-11-03T08:17:34.386Z,35.42
2022-11-03T08:20:01.691Z,35.80
2022-11-03T08:22:29.964Z,35.58
2022-11-03T08:24:57.147Z,34.92
2022-11-03T08:27:24.298Z,37.40
2022-11-03T08:29:51.475Z,38.10
2022-11-03T08:32:18.718Z,37.47
2022-11-03T08:34:45.967Z,39.20
2022-11-03T08:37:13.288Z,40.20
2022-11-03T08:39:41.556Z,39.50
2022-11-03T08:42:08.926Z,37.42
2022-11-03T08:44:36.114Z,36.35
2022-11-03T08:47:03.342Z,36.92
2022-11-03T08:49:30.705Z,39.38
2022-11-03T08:51:58.066Z,39.25
2022-11-03T08:54:25.341Z,37.15
2022-11-03T08:56:52.772Z,37.65
2022-11-03T08:59:20.149Z,38.80
2022-11-03T09:01:47.479Z,38.88
2022-11-03T09:04:15.047Z,40.08
2022-11-03T09:06:42.593Z,35.45
2022-11-03T09:11:57.058Z,36.50
2022-11-03T09:14:24.290Z,36.67
2022-11-03T09:16:51.590Z,37.20
2022-11-03T09:19:18.863Z,35.38
2022-11-03T09:21:46.293Z,38.80
2022-11-03T09:24:13.588Z,37.05
2022-11-03T09:26:41.085Z,35.60
2022-11-03T09:29:08.542Z,32.17
2022-11-03T09:31:36.202Z,34.05
2022-11-03T09:34:03.754Z,33.95
2022-11-03T09:36:31.099Z,37.83
2022-11-03T09:38:58.494Z,35.25
2022-11-03T09:41:36.303Z,33.00
2022-11-03T09:44:13.584Z,31.23
2022-11-03T09:46:41.239Z,33.10
2022-11-03T09:49:08.590Z,33.17
2022-11-03T09:51:36.805Z,29.70
2022-11-03T09:54:06.134Z,33.28
2022-11-03T09:56:37.557Z,32.20
2022-11-03T09:59:23.807Z,33.90
2022-11-03T10:01:53.995Z,34.08
2022-11-03T10:04:28.325Z,33.40
2022-11-03T10:06:57.526Z,33.47
2022-11-03T10:09:26.305Z,32.42
2022-11-03T10:11:55.328Z,33.72
2022-11-03T10:14:23.795Z,33.80
2022-11-03T10:17:02.411Z,30.63
2022-11-03T10:19:31.986Z,36.05
2022-11-03T10:21:59.264Z,33.53
2022-11-03T10:24:26.454Z,32.78
2022-11-03T10:26:57.632Z,32.15
2022-11-03T10:29:28.076Z,32.03
2022-11-03T10:31:58.581Z,32.50
2022-11-03T10:34:39.345Z,29.77
2022-11-03T10:37:20.846Z,29.02
2022-11-03T10:39:52.581Z,29.23
2022-11-03T10:42:34.850Z,28.50
2022-11-03T10:45:19.876Z,29.27
2022-11-03T10:48:05.108Z,27.95
2022-11-03T10:50:32.578Z,28.43
2022-11-03T10:52:59.814Z,29.17
2022-11-03T10:55:27.752Z,29.65
2022-11-03T10:57:56.555Z,28.80
2022-11-03T11:00:25.362Z,29.75
2022-11-03T11:02:59.843Z,28.13
2022-11-03T11:05:27.345Z,26.73
2022-11-03T11:07:55.669Z,28.05
2022-11-03T11:10:27.011Z,26.35
2022-11-03T11:13:26.932Z,25.75
2022-11-03T11:16:02.557Z,26.05
2022-11-03T11:21:21.648Z,25.60
2022-11-03T11:23:52.413Z,25.73
2022-11-03T11:26:40.944Z,26.25
2022-11-03T11:29:11.595Z,26.38
2022-11-03T11:31:40.085Z,26.58
2022-11-03T11:34:10.427Z,26.52
2022-11-03T11:36:57.154Z,26.08
2022-11-03T11:39:24.304Z,27.45
2022-11-03T11:42:15.052Z,28.50
2022-11-03T11:44:54.762Z,27.13
2022-11-03T11:47:40.796Z,28.17
2022-11-03T11:50:10.602Z,28.40
2022-11-03T11:53:09.911Z,28.58
2022-11-03T11:55:56.196Z,25.73
2022-11-03T12:01:35.852Z,27.13
2022-11-03T12:06:46.370Z,24.58
2022-11-03T12:09:13.397Z,24.35
2022-11-03T12:11:55.629Z,25.75
2022-11-03T12:14:33.725Z,24.13
2022-11-03T12:17:19.218Z,22.58
2022-11-03T12:19:50.172Z,24.60
2022-11-03T12:22:26.273Z,22.95
2022-11-03T12:25:08.384Z,22.40
2022-11-03T12:27:35.749Z,22.20
2022-11-03T12:30:17.614Z,23.13
2022-11-03T12:32:47.360Z,22.58
2022-11-03T12:35:15.270Z,22.83
2022-11-03T12:37:42.607Z,24.02
2022-11-03T12:40:13.816Z,23.65
2022-11-03T12:42:41.087Z,22.05
2022-11-03T12:45:09.260Z,19.98
2022-11-03T12:47:36.457Z,20.08
2022-11-03T12:50:04.419Z,20.95
2022-11-03T12:52:31.668Z,20.70
2022-11-03T12:54:58.844Z,23.02
2022-11-03T12:57:26.013Z,22.50
2022-11-03T12:59:53.264Z,23.27
2022-11-03T13:02:20.518Z,22.33
2022-11-03T13:04:47.872Z,22.08
2022-11-03T13:07:16.454Z,24.23
2022-11-03T13:09:45.488Z,21.30
2022-11-03T13:12:31.600Z,23.05
2022-11-03T13:17:32.285Z,22.83
2022-11-03T13:22:41.317Z,23.55
2022-11-03T13:25:09.593Z,22.85
2022-11-03T13:27:37.355Z,23.30
2022-11-03T13:30:07.322Z,23.67
2022-11-03T13:32:34.754Z,26.02
2022-11-03T13:35:02.090Z,26.35
2022-11-03T13:37:29.296Z,24.25
2022-11-03T13:39:56.484Z,26.35
2022-11-03T13:42:23.732Z,24.17
2022-11-03T13:44:51.140Z,24.85
2022-11-03T13:47:18.407Z,24.67
2022-11-03T13:50:12.280Z,25.08
2022-11-03T13:52:32.980Z,23.52
2022-11-03T14:00:34.859Z,24.55
2022-11-03T14:05:49.248Z,24.95
2022-11-03T14:08:16.485Z,24.83
2022-11-03T14:10:43.740Z,25.90
2022-11-03T14:13:12.171Z,25.33
2022-11-03T14:15:39.439Z,25.92
2022-11-03T14:18:06.792Z,26.33
2022-11-03T14:20:33.986Z,27.50
2022-11-03T14:23:01.147Z,26.90
2022-11-03T14:25:29.560Z,26.90
2022-11-03T14:27:56.889Z,27.83
2022-11-03T14:30:24.156Z,26.70
2022-11-03T14:32:54.250Z,28.15
2022-11-03T14:35:25.861Z,28.77
2022-11-03T14:37:53.041Z,27.40
2022-11-03T14:40:39.044Z,27.63
2022-11-03T14:45:35.895Z,29.02
2022-11-03T14:48:06.174Z,27.75
2022-11-03T14:50:33.583Z,28.27
2022-11-03T14:53:00.786Z,29.88
2022-11-03T14:55:27.926Z,30.73
2022-11-03T14:57:55.113Z,29.95
2022-11-03T15:00:22.324Z,29.10
2022-11-03T15:02:49.548Z,29.00
2022-11-03T15:05:35.541Z,27.33
2022-11-03T15:10:30.277Z,27.90
2022-11-03T15:12:57.450Z,30.25
2022-11-03T15:15:25.253Z,30.30
2022-11-03T15:17:52.534Z,30.77
2022-11-03T15:20:20.015Z,30.90
2022-11-03T15:25:36.351Z,32.47
2022-11-03T15:28:03.697Z,32.80
2022-11-03T15:30:30.937Z,32.30
2022-11-03T15:32:58.175Z,32.63
2022-11-03T15:35:25.478Z,32.17
2022-11-03T15:37:53.810Z,33.70
2022-11-03T15:40:20.999Z,33.55
2022-11-03T15:42:48.352Z,32.85
2022-11-03T15:45:15.992Z,32.97
2022-11-03T15:47:43.522Z,30.75
2022-11-03T15:50:12.321Z,32.08
2022-11-03T15:52:39.635Z,33.42
2022-11-03T15:55:08.259Z,32.08
2022-11-03T15:57:35.396Z,33.75
2022-11-03T16:00:06.318Z,34.65
2022-11-03T16:02:41.470Z,34.03
2022-11-03T16:05:10.072Z,33.05
2022-11-03T16:07:37.427Z,37.63
2022-11-03T16:10:05.285Z,35.05
2022-11-03T16:12:32.485Z,34.92
2022-11-03T16:14:59.630Z,33.90
2022-11-03T16:17:26.963Z,33.53
2022-11-03T16:19:54.211Z,35.60
2022-11-03T16:22:21.404Z,33.55
2022-11-03T16:24:48.672Z,35.83
2022-11-03T16:27:15.970Z,35.72
2022-11-03T16:29:43.194Z,37.55
2022-11-03T16:32:10.442Z,37.65
2022-11-03T16:34:37.661Z,37.35
2022-11-03T16:37:05.869Z,37.22
2022-11-03T16:39:33.926Z,40.20
2022-11-03T16:42:03.224Z,39.30
2022-11-03T16:44:30.488Z,38.20
2022-11-03T16:46:57.764Z,37.15
2022-11-03T16:49:25.192Z,36.90
2022-11-03T16:51:52.537Z,40.40
2022-11-03T16:54:19.800Z,40.10
2022-11-03T16:56:51.982Z,38.08
2022-11-03T16:59:24.230Z,41.42
2022-11-03T17:01:51.547Z,38.95
2022-11-03T17:04:19.440Z,39.00
2022-11-03T17:06:46.739Z,41.75
2022-11-03T17:09:14.000Z,39.88
2022-11-03T17:11:41.422Z,41.80
2022-11-03T17:14:13.843Z,41.88
2022-11-03T17:16:45.245Z,40.63
2022-11-03T17:19:13.691Z,43.28
2022-11-03T17:21:40.868Z,42.05
2022-11-03T17:24:11.203Z,43.00
2022-11-03T17:27:14.386Z,44.60
2022-11-03T17:29:50.652Z,48.08
2022-11-03T17:32:37.632Z,53.90
2022-11-03T17:35:33.652Z,52.00
2022-11-03T17:38:15.188Z,49.20
2022-11-03T17:40:48.197Z,51.42
2022-11-03T17:43:27.287Z,54.08
2022-11-03T17:45:54.777Z,53.85
2022-11-03T17:48:25.250Z,58.95
2022-11-03T17:50:55.651Z,55.70
2022-11-03T17:53:31.031Z,55.63
2022-11-03T17:56:27.870Z,55.17
2022-11-03T17:58:47.615Z,55.85
2022-11-03T18:01:27.261Z,55.53
2022-11-03T18:03:54.792Z,58.15
2022-11-03T18:06:22.604Z,61.00
2022-11-03T18:08:50.131Z,66.78
2022-11-03T18:11:46.327Z,62.65
2022-11-03T18:14:14.311Z,60.47
2022-11-03T18:16:41.682Z,60.33
2022-11-03T18:19:14.495Z,56.35
2022-11-03T18:21:42.247Z,55.70
2022-11-03T18:24:19.772Z,55.35
2022-11-03T18:26:47.075Z,56.58
2022-11-03T18:29:14.576Z,54.72
2022-11-03T18:31:49.658Z,55.03
2022-11-03T18:34:25.067Z,57.17
2022-11-03T18:36:53.178Z,57.65
2022-11-03T18:39:26.846Z,59.75
2022-11-03T18:41:54.506Z,56.10
2022-11-03T18:44:30.681Z,58.78
2022-11-03T18:46:58.800Z,56.30
2022-11-03T18:49:27.527Z,57.28
2022-11-03T18:52:03.988Z,61.55
2022-11-03T18:54:34.579Z,58.13
2022-11-03T18:57:02.855Z,56.92
2022-11-03T18:59:35.937Z,58.92
2022-11-03T19:02:10.361Z,61.97
2022-11-03T19:04:37.773Z,58.15
2022-11-03T19:07:08.241Z,58.63
2022-11-03T19:09:35.528Z,63.13
2022-11-03T19:12:02.872Z,60.67
2022-11-03T19:14:35.788Z,61.50
2022-11-03T19:17:22.496Z,61.97
2022-11-03T19:19:50.922Z,64.05
2022-11-03T19:22:22.081Z,60.70
2022-11-03T19:24:49.349Z,64.53
2022-11-03T19:27:29.614Z,60.55
2022-11-03T19:29:59.455Z,61.47
2022-11-03T19:32:32.632Z,62.17
2022-11-03T19:35:07.847Z,60.00
2022-11-03T19:37:36.260Z,64.20
2022-11-03T19:40:08.857Z,64.40
2022-11-03T19:42:36.906Z,60.88
2022-11-03T19:45:16.355Z,63.13
2022-11-03T19:48:23.185Z,61.80
2022-11-03T19:50:49.371Z,62.85
2022-11-03T19:53:26.368Z,60.83
2022-11-03T19:55:55.034Z,63.03
2022-11-03T19:58:29.033Z,63.15
2022-11-03T20:00:57.404Z,65.47
2022-11-03T20:03:25.265Z,63.65
2022-11-03T20:05:56.799Z,63.20
2022-11-03T20:08:28.446Z,63.80
2022-11-03T20:10:56.046Z,62.97
2022-11-03T20:13:35.159Z,62.22
2022-11-03T20:16:02.925Z,66.55
2022-11-03T20:18:30.911Z,63.65
2022-11-03T20:20:58.384Z,65.93
2022-11-03T20:23:33.477Z,63.67
2022-11-03T20:26:02.402Z,64.97
2022-11-03T20:28:32.368Z,67.45
2022-11-03T20:31:01.051Z,65.70
2022-11-03T20:33:28.790Z,69.00
2022-11-03T20:35:57.053Z,64.05
2022-11-03T20:38:27.171Z,65.93
2022-11-03T20:41:03.342Z,65.50
2022-11-03T20:43:38.672Z,63.92
2022-11-03T20:48:45.532Z,69.38
2022-11-03T20:51:16.762Z,69.25
2022-11-03T20:53:44.535Z,72.68
2022-11-03T20:56:23.412Z,68.95
2022-11-03T20:58:51.587Z,65.88
2022-11-03T21:01:30.646Z,68.75
2022-11-03T21:04:01.606Z,65.90
2022-11-03T21:06:32.581Z,64.40
2022-11-03T21:09:01.863Z,66.00
2022-11-03T21:11:36.822Z,65.53
2022-11-03T21:14:33.082Z,66.55
2022-11-03T21:17:18.937Z,64.75
2022-11-03T21:19:58.531Z,63.50
2022-11-03T21:22:57.436Z,63.95
2022-11-03T21:25:25.405Z,67.05
2022-11-03T21:27:54.347Z,65.65
2022-11-03T21:30:23.297Z,64.72
2022-11-03T21:32:50.719Z,64.95
2022-11-03T21:35:22.014Z,63.15
2022-11-03T21:37:49.668Z,63.00
2022-11-03T21:40:17.004Z,60.88
2022-11-03T21:43:02.663Z,61.08
2022-11-03T21:45:30.127Z,57.72
2022-11-03T21:48:16.406Z,58.00
2022-11-03T21:50:44.132Z,54.00
2022-11-03T21:53:12.069Z,52.88
2022-11-03T21:55:40.064Z,48.53
2022-11-03T21:58:07.654Z,48.30
2022-11-03T22:00:35.195Z,45.50
2022-11-03T22:03:02.625Z,44.80
2022-11-03T22:05:30.127Z,42.92
2022-11-03T22:07:57.271Z,42.10
2022-11-03T22:10:24.898Z,42.03
2022-11-03T22:12:52.087Z,44.67
2022-11-03T22:15:37.974Z,42.95
2022-11-03T22:18:06.942Z,42.05
2022-11-03T22:20:55.456Z,41.35
2022-11-03T22:23:41.509Z,42.35
2022-11-03T22:29:17.834Z,35.92
2022-11-03T22:31:45.423Z,36.40
2022-11-03T22:34:32.047Z,32.20
2022-11-03T22:36:59.876Z,29.23
2022-11-03T22:39:45.768Z,29.20
2022-11-03T22:42:31.812Z,28.67
2022-11-03T22:47:44.674Z,26.02
2022-11-03T22:50:11.807Z,24.75
2022-11-03T22:52:39.020Z,25.23
2022-11-03T22:55:06.631Z,22.83
2022-11-03T22:57:33.872Z,24.52
2022-11-03T23:00:01.138Z,22.50
2022-11-03T23:02:28.431Z,23.20
2022-11-03T23:04:55.734Z,22.83
2022-11-03T23:07:27.022Z,22.30
2022-11-03T23:09:57.332Z,23.98
2022-11-03T23:12:24.584Z,23.27
2022-11-03T23:15:10.564Z,25.50
2022-11-03T23:20:42.319Z,23.45
2022-11-03T23:28:23.527Z,23.60
2022-11-03T23:30:50.778Z,27.58
2022-11-03T23:33:17.940Z,25.27
2022-11-03T23:35:45.175Z,24.45
2022-11-03T23:38:12.478Z,25.88
2022-11-03T23:40:39.730Z,27.08
2022-11-03T23:43:06.975Z,26.60
2022-11-03T23:45:55.234Z,25.90
2022-11-03T23:48:41.462Z,22.95
2022-11-03T23:51:08.695Z,19.52
2022-11-03T23:53:35.880Z,13.73
2022-11-03T23:56:21.710Z,9.10
2022-11-03T23:58:51.015Z,7.10
